x

Long Island - 30 Nm South Of Islip, Ny (44025) Wave Buoy

4:50am - Thu 7th May 2015 All times are EDT. -4 hours from GMT.

  • Sig Wave height 1.6ft
  • Swell Direction
  • Peak Period 8s
  • Average Period 5s
  • Wind
    2mph
  • Sea Temp 49°f
  • Air Temp 50°f
  • Sea Pressure 1022.7mb
  • Long Island - 30 Nm South Of Islip, Ny
  • Long Island - 30 Nm South Of Islip, Ny

More Historic Weather Station data

Upgrade to MSW Pro to gain access to the past 30 days of data for over 8000 Wavebouys and Weather Stations around the globe.

Join Pro

Comparision Forecast

View Surf forecast
   
Thu 05/07 4:50am 1.6ft 8s 5s 2
mph
1022.7mb 49f 50f
3:50am 1.6ft 8s 5s 7
mph
1022.8mb 49f 50f
2:50am 1.6ft 11s 5s 4 7 mph 1023.2mb 49f 50f
1:50am 1.6ft 5s 5s  -  2 mph 1023.6mb 49f 50f
12:50am 2ft 10s 5s 4
mph
1023.8mb 49f 50f
Wed 05/06 11:50pm 2ft 11s 5s 7
mph
1023.6mb 49f 50f
10:50pm 2ft 5s 5s 7
mph
1023.7mb 49f 50f
9:50pm 2ft 5s 5s 4 7 mph 1023.7mb 49f 50f
8:50pm 2.5ft 5s 5s 7
mph
1023.4mb 49f 50f
7:50pm 2.5ft 6s 5s 7 9 mph 1023.2mb 49f 50f
6:50pm 2.5ft 6s 5s 9 11 mph 1023.3mb 49f 51f
5:50pm 2.5ft 6s 5s 9 11 mph 1023.5mb 49f 51f
4:50pm 2.5ft 6s 5s 11 13 mph 1023.7mb 49f 51f
3:50pm 2.5ft 6s 5s 13 16 mph 1023.8mb 49f 52f
2:50pm 2.5ft 6s 5s 13 16 mph 1024.1mb 50f 53f
1:50pm 2.5ft 6s 5s 11
mph
1024.4mb 49f 53f
12:50pm 2.5ft 6s 5s 9 11 mph 1024.5mb 49f 52f
11:50am 3ft 6s 5s 9
mph
1024.9mb 49f 51f
10:50am 3ft 6s 5s 9
mph
1024.9mb 49f 51f
9:50am 3ft 6s 5s 11 13 mph 1024.8mb 49f 53f
8:50am 3ft 6s 5s 16 18 mph 1024.4mb 49f 52f
7:50am 3ft 6s 6s 13 16 mph 1023.7mb 49f 53f
6:50am 3.5ft 6s 5s 16 18 mph 1022.7mb 49f 54f
5:50am 3.5ft 6s 5s 11
mph
1022.3mb 49f 53f
4:50am 3.5ft 6s 5s  -  2 mph 1022.3mb 49f 52f
3:50am 3.5ft 6s 5s 4 7 mph 1021.9mb 49f 54f
2:50am 3ft 6s 5s 7 9 mph 1021.8mb 49f 54f
1:50am 2.5ft 7s 5s 11 13 mph 1022.1mb 49f 53f
12:50am 3ft 6s 5s 9 13 mph 1021.8mb 49f 54f
Tue 05/05 11:50pm 3ft 6s 5s 13 16 mph 1021.9mb 49f 53f
10:50pm 3.5ft 6s 5s 13 16 mph 1022.1mb 49f 53f
9:50pm 2.5ft 6s 5s 13
mph
1022.2mb 50f 53f
8:50pm 3.5ft 6s 5s 11
mph
1022mb 50f 54f
7:50pm 3ft 6s 5s 9 11 mph 1021.8mb 50f 53f
6:50pm 3ft 6s 5s 9 11 mph 1021.3mb 51f 53f
5:50pm 3.5ft 6s 5s 9
mph
1021.4mb 50f 53f
4:50pm 3.5ft 6s 5s 9 11 mph 1021.7mb 51f 53f
3:50pm 3.5ft 6s 5s 7
mph
1022.5mb 50f 53f
2:50pm 3.5ft 6s 5s 4
mph
1023.1mb 49f 53f
1:50pm 3.5ft 5s 5s 7
mph
1023.1mb 49f 52f
12:50pm 3.5ft 6s 5s 7
mph
1023.5mb 48f 51f
11:50am 3.5ft 5s 5s 9 11 mph 1023.7mb 48f 52f
10:50am 3.5ft 5s 5s 9 11 mph 1023.4mb 48f 51f
9:50am 3.5ft 5s 5s 11 13 mph 1022.8mb 48f 51f
8:50am 3.5ft 5s 5s 11 13 mph 1023mb 48f 51f
7:50am 3.5ft 6s 5s 13 16 mph 1022.6mb 48f 52f
6:50am 4ft 5s 5s 13 16 mph 1022.2mb 48f 52f
5:50am 4ft 5s 5s 16 18 mph 1021.5mb 48f 52f
4:50am 4ft 5s 5s 18 20 mph 1021.4mb 48f 52f
3:50am 3.5ft 5s 5s 18 20 mph 1021.5mb 48f 52f
2:50am 4ft 5s 4s 18 20 mph 1022mb 48f 53f
1:50am 4ft 5s 5s 18 22 mph 1022.3mb 48f 53f
12:50am 4ft 5s 5s 18 22 mph 1022.6mb 48f 53f
Mon 05/04 11:50pm 4ft 4s 5s 20 22 mph 1022.5mb 48f 53f
10:50pm 4ft 4s 4s 18 20 mph 1022.4mb 48f 53f
9:50pm 3.5ft 8s 5s 20 22 mph 1022.4mb 48f 54f
8:50pm 3.5ft 8s 4s 18 20 mph 1022.1mb 48f 54f
7:50pm 3.5ft 8s 5s 18 20 mph 1021.5mb 49f 55f
6:50pm 3.5ft 9s 5s 18 20 mph 1021.4mb 49f 55f
5:50pm 3.5ft 7s 5s 16 18 mph 1021.7mb 49f 54f
4:50pm 3.5ft 8s 5s 18 20 mph 1021.8mb 49f 54f
3:50pm 3.5ft 8s 5s 16 18 mph 1022.2mb 49f 54f
2:50pm 3.5ft 8s 6s 16 18 mph 1022.6mb 49f 54f
1:50pm 3.5ft 8s 6s 13 16 mph 1023.3mb 49f 52f
12:50pm 3ft 9s 7s 11 13 mph 1023.9mb 49f 51f
11:50am 3ft 9s 7s 9 11 mph 1024.2mb 48f 51f
10:50am 3.5ft 8s 6s 9 11 mph 1024mb 48f 51f
9:50am 3.5ft 8s 7s 9
mph
1023.7mb 48f 51f
8:50am 3.5ft 8s 7s 9
mph
1023.5mb 48f 50f
7:50am 3.5ft 8s 6s 9
mph
1023.5mb 48f 50f
6:50am 3.5ft 8s 7s 9
mph
1023.2mb 48f 50f
5:50am 3.5ft 8s 6s 9
mph
1022.5mb 46f 50f
4:50am 3.5ft 8s 6s 7 9 mph 1022.4mb 46f 49f
3:50am 3.5ft 7s 6s 7 9 mph 1022.3mb 46f 49f
2:50am 3.5ft 8s 6s 9
mph
1022.1mb 47f 50f
1:50am 3.5ft 9s 6s 9 11 mph 1021.9mb 47f 50f
12:50am 3.5ft 9s 6s 9
mph
1021.8mb 47f 50f
Sun 05/03 11:50pm 3.5ft 10s 6s 9 11 mph 1021.5mb 48f 51f
10:50pm 4ft 8s 6s 9 11 mph 1021.1mb 48f 50f
9:50pm 4ft 8s  -  11 13 mph 1020.9mb 48f 50f
8:50pm 4.5ft 8s 6s 11 13 mph 1020.3mb 48f 50f
7:50pm 4.5ft 8s 6s 11
mph
1019.8mb 48f 50f
6:50pm 4.5ft 8s 6s 13 16 mph 1019.5mb 49f 51f
5:50pm 4.5ft 8s 6s 16 18 mph 1019.2mb 49f 50f
4:50pm 4.5ft 8s 7s 13 16 mph 1019.2mb 48f 50f
3:50pm 4.5ft 8s 7s 11 13 mph 1019.5mb 48f 49f
2:50pm 4.5ft 9s 7s 11 13 mph 1020mb 48f 49f
1:50pm 4ft 8s 7s 9 11 mph 1020.2mb 48f 49f
12:50pm 4.5ft 9s 7s 9 11 mph 1020mb 48f 49f
11:50am 4ft 8s 7s 9
mph
1020.2mb 47f 48f
10:50am 4.5ft 13s 7s 7 9 mph 1019.9mb 47f 48f